Time;durP1;ratioP1;P1;durP2;ratioP2;P2;SDS_P1;SDS_P2;PMS_P1;PMS_P2;Temp;Humidity;BMP_temperature;BMP_pressure;BME280_temperature;BME280_humidity;BME280_pressure;Samples;Min_cycle;Max_cycle;Signal;HPM_P1;HPM_P2
2022/06/06 00:01:46;;;;;;;5.97;4.85;;;;;;;14.86;66.62;100532.66;1742873;81;21057;-83
2022/06/06 00:04:15;;;;;;;7.67;5.15;;;;;;;14.83;66.82;100536.78;1743324;80;21588;-83
2022/06/06 00:06:43;;;;;;;6.28;5.58;;;;;;;14.79;67.02;100535.22;1742663;81;21034;-82
2022/06/06 00:09:13;;;;;;;5.67;5.17;;;;;;;14.78;67.12;100534.84;1742377;81;21098;-82
2022/06/06 00:11:42;;;;;;;5.83;5.30;;;;;;;14.77;67.21;100530.95;1742700;81;20990;-82
2022/06/06 00:14:12;;;;;;;5.78;5.20;;;;;;;14.75;67.37;100527.56;1742138;81;22053;-83
2022/06/06 00:16:39;;;;;;;;;;;;;;;14.71;67.38;100515.86;1746097;81;21041;-82
2022/06/06 00:19:06;;;;;;;7.30;5.85;;;;;;;14.68;67.73;100518.63;1761588;79;21305;-82
2022/06/06 00:21:37;;;;;;;5.90;5.30;;;;;;;14.64;67.58;100511.82;1756994;80;21743;-82
2022/06/06 00:24:06;;;;;;;6.20;5.60;;;;;;;14.63;67.75;100517.16;1760556;80;21026;-82
2022/06/06 00:26:34;;;;;;;6.12;5.37;;;;;;;14.60;67.85;100514.69;1773064;80;21478;-83
2022/06/06 00:29:03;;;;;;;6.92;6.22;;;;;;;14.58;68.02;100504.23;1749727;80;21576;-83
2022/06/06 00:37:07;;;;;;;6.03;5.42;;;;;;;14.57;68.58;100493.27;1773024;80;21031;-82
2022/06/06 00:39:35;;;;;;;6.58;6.00;;;;;;;14.56;68.90;100477.07;1770515;79;21005;-82
2022/06/06 00:42:06;;;;;;;6.53;5.87;;;;;;;14.56;69.01;100469.16;1754049;80;21033;-81
2022/06/06 00:44:35;;;;;;;6.95;5.65;;;;;;;14.57;69.20;100473.49;1754235;81;21246;-82
2022/06/06 00:47:24;;;;;;;6.87;6.17;;;;;;;14.56;69.21;100459.93;1762960;80;21071;-83
2022/06/06 00:49:58;;;;;;;6.50;5.55;;;;;;;14.55;69.29;100460.00;1762231;81;21017;-82
2022/06/06 00:52:35;;;;;;;7.35;6.05;;;;;;;14.52;69.37;100459.69;1757395;81;21113;-82
2022/06/06 00:55:16;;;;;;;6.25;5.65;;;;;;;14.49;69.39;100457.18;1762304;79;21021;-82
2022/06/06 00:57:48;;;;;;;8.43;6.10;;;;;;;14.45;69.45;100445.10;1750082;81;21482;-82
2022/06/06 01:00:20;;;;;;;6.58;5.90;;;;;;;14.44;69.58;100443.41;1762571;80;21082;-83
2022/06/06 01:02:51;;;;;;;6.42;5.83;;;;;;;14.40;69.72;100439.21;1759506;81;21023;-83
2022/06/06 01:05:22;;;;;;;7.22;6.47;;;;;;;14.38;69.74;100435.36;1761276;79;21471;-82
2022/06/06 01:07:49;;;;;;;8.25;5.72;;;;;;;14.34;69.67;100435.11;1758843;81;20992;-83
2022/06/06 01:10:17;;;;;;;7.35;6.65;;;;;;;14.28;69.55;100434.97;1759762;79;21059;-83
2022/06/06 01:12:48;;;;;;;9.05;6.45;;;;;;;14.25;69.58;100436.92;1761656;80;21937;-82
2022/06/06 01:15:17;;;;;;;6.30;5.70;;;;;;;14.21;69.53;100441.47;1757837;81;20984;-82
2022/06/06 01:18:05;;;;;;;7.00;6.15;;;;;;;14.16;69.46;100438.25;1780819;80;21020;-83
2022/06/06 01:20:57;;;;;;;6.05;5.45;;;;;;;14.10;69.59;100443.81;1787099;80;21039;-83
2022/06/06 01:24:05;;;;;;;5.92;5.35;;;;;;;14.09;69.72;100434.68;1787589;80;21486;-82
2022/06/06 01:26:53;;;;;;;6.47;5.50;;;;;;;14.03;69.87;100427.94;1787753;80;21116;-83
2022/06/06 01:29:28;;;;;;;7.58;5.83;;;;;;;13.99;70.18;100427.69;1787293;80;20993;-83
2022/06/06 01:32:12;;;;;;;7.08;6.28;;;;;;;13.96;70.23;100427.37;1786460;80;22156;-82
2022/06/06 01:34:43;;;;;;;6.72;6.05;;;;;;;13.93;70.33;100432.80;1787464;80;21470;-83
2022/06/06 01:37:41;;;;;;;6.47;5.87;;;;;;;13.89;70.48;100443.13;1782184;80;21036;-84
2022/06/06 01:40:14;;;;;;;6.83;6.22;;;;;;;13.91;70.52;100449.19;1760968;80;21889;-83
2022/06/06 01:42:53;;;;;;;7.12;6.03;;;;;;;13.93;70.39;100444.66;1753268;80;21495;-83
2022/06/06 01:46:03;;;;;;;6.80;6.10;;;;;;;13.93;70.50;100438.08;1755905;80;21055;-83
2022/06/06 01:48:36;;;;;;;;;;;;;;;13.94;70.57;100440.23;1772742;80;21058;-83
2022/06/06 01:51:13;;;;;;;7.22;6.08;;;;;;;13.91;70.76;100441.72;1787374;80;21329;-82
2022/06/06 01:53:41;;;;;;;7.67;6.45;;;;;;;13.91;70.91;100432.05;1770523;80;21264;-83
2022/06/06 01:56:13;;;;;;;7.22;6.58;;;;;;;13.90;70.90;100430.33;1754920;80;21009;-82
2022/06/06 01:58:40;;;;;;;7.12;6.42;;;;;;;13.91;70.97;100430.73;1733297;81;21056;-83
2022/06/06 02:01:07;;;;;;;8.48;7.30;;;;;;;13.88;70.88;100441.88;1779033;80;21020;-83
2022/06/06 02:03:35;;;;;;;7.53;6.83;;;;;;;13.86;70.91;100439.80;1787453;80;21607;-82
2022/06/06 02:06:05;;;;;;;9.28;6.37;;;;;;;13.83;70.86;100432.43;1787772;80;21062;-83
2022/06/06 02:08:33;;;;;;;7.12;6.42;;;;;;;13.84;71.01;100440.71;1755989;80;21074;-83
2022/06/06 02:11:00;;;;;;;7.53;6.83;;;;;;;13.85;71.05;100431.02;1750232;80;21075;-83
2022/06/06 02:13:28;;;;;;;7.20;6.50;;;;;;;13.84;71.12;100427.53;1765485;80;21044;-83
2022/06/06 02:15:56;;;;;;;6.97;6.33;;;;;;;13.82;71.01;100424.59;1787597;80;21043;-83
2022/06/06 02:18:23;;;;;;;6.97;6.33;;;;;;;13.77;71.05;100422.20;1787230;79;21819;-83
2022/06/06 02:20:50;;;;;;;6.65;6.10;;;;;;;13.70;71.07;100426.06;1787259;80;21000;-83
2022/06/06 02:23:19;;;;;;;7.22;6.55;;;;;;;13.67;71.34;100426.22;1787315;80;21019;-83
2022/06/06 02:25:46;;;;;;;7.35;6.70;;;;;;;13.65;71.40;100424.11;1787437;80;21015;-83
2022/06/06 02:28:15;;;;;;;7.33;6.62;;;;;;;13.68;71.97;100429.23;1787535;80;21028;-83
2022/06/06 02:30:43;;;;;;;8.15;6.58;;;;;;;13.75;72.30;100419.26;1787529;80;21103;-83
2022/06/06 02:33:10;;;;;;;7.10;6.40;;;;;;;13.78;72.65;100419.95;1787361;80;21028;-83
2022/06/06 02:35:41;;;;;;;7.90;6.12;;;;;;;13.84;72.83;100420.11;1787265;80;21095;-83
2022/06/06 02:38:12;;;;;;;7.17;6.53;;;;;;;13.89;73.05;100414.14;1787459;80;21273;-83
2022/06/06 02:40:41;;;;;;;8.05;7.00;;;;;;;13.95;73.19;100412.51;1787357;80;22125;-83
2022/06/06 02:43:08;;;;;;;7.83;7.00;;;;;;;13.99;73.18;100407.45;1772488;80;21879;-83
2022/06/06 02:45:35;;;;;;;7.00;6.35;;;;;;;14.05;73.10;100414.22;1753484;80;21024;-82
2022/06/06 02:48:02;;;;;;;7.45;6.75;;;;;;;14.11;73.30;100406.47;1744108;80;20996;-83
2022/06/06 02:50:32;;;;;;;7.65;6.90;;;;;;;14.17;73.40;100400.40;1766528;80;21092;-83
2022/06/06 02:53:00;;;;;;;7.78;6.87;;;;;;;14.22;73.47;100396.22;1787459;80;22261;-83
2022/06/06 02:55:28;;;;;;;7.03;6.33;;;;;;;14.25;73.32;100393.42;1787580;80;21175;-83
2022/06/06 02:57:55;;;;;;;6.65;5.92;;;;;;;14.27;73.40;100395.48;1787510;80;21051;-83
2022/06/06 03:00:30;;;;;;;7.12;6.03;;;;;;;14.27;73.21;100398.12;1787309;80;21072;-83
2022/06/06 03:02:57;;;;;;;7.87;6.22;;;;;;;14.25;73.11;100402.17;1787784;80;21280;-83
2022/06/06 03:05:50;;;;;;;7.08;6.22;;;;;;;14.26;72.63;100409.14;1787621;80;21286;-83
2022/06/06 03:08:26;;;;;;;8.23;6.37;;;;;;;14.29;72.25;100409.45;1713802;83;21141;-83
2022/06/06 03:11:17;;;;;;;7.08;6.47;;;;;;;14.34;72.28;100402.63;1713058;83;21018;-83
2022/06/06 03:13:58;;;;;;;6.90;6.30;;;;;;;14.35;72.41;100401.20;1681489;83;21009;-83
2022/06/06 03:22:30;;;;;;;6.55;5.95;;;;;;;14.24;72.37;100407.52;1686319;83;21174;-83
2022/06/06 03:25:30;;;;;;;6.53;6.03;;;;;;;14.24;72.64;100408.39;1714123;83;21076;-83
2022/06/06 03:28:30;;;;;;;6.92;6.22;;;;;;;14.24;72.69;100399.60;1713819;83;21038;-83
2022/06/06 03:31:28;;;;;;;7.58;6.70;;;;;;;14.25;72.74;100407.45;1687236;83;21250;-83
2022/06/06 03:34:22;;;;;;;7.45;6.50;;;;;;;14.26;72.78;100404.34;1675335;83;21002;-83
2022/06/06 03:37:13;;;;;;;6.95;6.08;;;;;;;14.27;72.95;100404.27;1706403;83;21832;-83
2022/06/06 03:39:49;;;;;;;6.55;5.95;;;;;;;14.32;73.10;100402.69;1691740;83;21527;-83
2022/06/06 03:42:33;;;;;;;6.87;6.17;;;;;;;14.41;73.28;100407.50;1713434;83;21767;-84
2022/06/06 03:45:15;;;;;;;7.33;6.62;;;;;;;14.47;73.26;100418.19;1758048;80;20997;-84
2022/06/06 03:48:03;;;;;;;8.20;6.47;;;;;;;14.56;73.01;100418.20;1755087;80;21072;-83
2022/06/06 03:51:22;;;;;;;6.70;6.08;;;;;;;14.67;73.29;100421.11;1756601;80;21099;-83
2022/06/06 03:54:09;;;;;;;7.90;6.55;;;;;;;14.82;73.23;100420.27;1776353;80;21055;-83
2022/06/06 03:56:42;;;;;;;7.65;6.47;;;;;;;15.00;73.45;100417.58;1768758;80;21012;-83
2022/06/06 03:59:10;;;;;;;7.00;6.30;;;;;;;15.14;73.61;100409.75;1786285;80;20992;-83
2022/06/06 04:01:40;;;;;;;6.80;6.10;;;;;;;15.26;73.44;100414.32;1756759;80;21447;-84
2022/06/06 04:04:07;;;;;;;;;;;;;;;15.38;73.52;100414.13;1758980;80;21121;-83
2022/06/06 04:06:35;;;;;;;7.03;5.60;;;;;;;15.51;73.54;100414.26;1756715;80;20138;-83
2022/06/06 04:09:03;;;;;;;6.55;5.92;;;;;;;15.60;72.66;100412.39;1756447;80;21057;-83
2022/06/06 04:12:11;;;;;;;8.05;5.70;;;;;;;15.71;72.58;100414.45;1756643;80;21005;-83
2022/06/06 04:14:52;;;;;;;7.47;5.92;;;;;;;15.79;71.99;100418.83;1776991;80;21024;-83
2022/06/06 04:17:43;;;;;;;6.65;5.97;;;;;;;15.90;71.33;100412.91;1770965;79;21182;-83
2022/06/06 04:20:41;;;;;;;9.63;6.12;;;;;;;15.97;71.03;100405.86;1766004;80;21585;-84
2022/06/06 04:23:36;;;;;;;6.42;5.78;;;;;;;16.07;70.70;100415.40;1745475;81;20990;-84
2022/06/06 04:26:47;;;;;;;6.67;5.95;;;;;;;16.13;70.39;100409.77;1770269;81;21521;-83
2022/06/06 04:29:47;;;;;;;7.30;6.22;;;;;;;16.20;70.08;100419.49;1703497;80;21036;-84
2022/06/06 04:32:37;;;;;;;6.78;6.10;;;;;;;16.26;69.66;100417.31;1745101;79;21490;-84
2022/06/06 04:35:19;;;;;;;6.10;5.53;;;;;;;16.31;69.35;100430.75;1745324;81;21566;-84
2022/06/06 04:38:03;;;;;;;7.33;5.95;;;;;;;16.36;69.07;100437.47;1769392;80;20963;-85
2022/06/06 04:40:45;;;;;;;6.30;5.70;;;;;;;16.42;68.62;100438.41;1740202;80;20977;-85
2022/06/06 04:43:41;;;;;;;6.45;5.65;;;;;;;16.50;68.35;100438.80;1759841;81;21019;-85
2022/06/06 04:46:37;;;;;;;7.22;6.22;;;;;;;16.56;68.02;100432.27;1769629;81;21183;-85
2022/06/06 04:49:04;;;;;;;5.87;5.37;;;;;;;16.65;67.75;100438.80;1769678;80;21070;-85
2022/06/06 04:51:34;;;;;;;6.40;5.85;;;;;;;16.76;67.56;100445.59;1770189;79;21030;-85
2022/06/06 04:54:03;;;;;;;8.90;6.12;;;;;;;16.85;67.39;100446.84;1759524;79;20988;-85
2022/06/06 04:56:32;;;;;;;6.78;6.08;;;;;;;16.94;67.08;100446.30;1749744;81;21553;-85
2022/06/06 04:59:01;;;;;;;9.53;6.70;;;;;;;17.03;66.92;100464.23;1739616;81;21094;-84
2022/06/06 05:01:29;;;;;;;8.83;6.58;;;;;;;17.12;66.85;100458.34;1756457;81;20991;-87
2022/06/06 05:03:56;;;;;;;9.35;6.53;;;;;;;17.18;66.53;100473.00;1761411;81;21581;-87
2022/06/06 05:07:11;;;;;;;7.58;5.85;;;;;;;17.24;66.34;100446.15;1768935;81;21564;-88
2022/06/06 05:10:04;;;;;;;6.67;6.08;;;;;;;17.29;66.15;100467.03;1755459;79;21490;-87
2022/06/06 05:12:40;;;;;;;8.93;6.72;;;;;;;17.32;65.77;100460.20;1758131;79;21541;-86
2022/06/06 05:15:31;;;;;;;6.90;6.20;;;;;;;17.32;65.76;100462.41;1749351;81;21114;-86
2022/06/06 05:18:24;;;;;;;6.92;6.15;;;;;;;17.33;65.74;100454.81;1757887;79;21616;-87
2022/06/06 05:21:38;;;;;;;6.58;5.87;;;;;;;17.37;65.95;100464.73;1753889;81;21552;-89
2022/06/06 05:24:17;;;;;;;6.85;6.17;;;;;;;17.43;65.64;100459.06;1676202;80;21052;-88
2022/06/06 05:26:55;;;;;;;7.87;7.08;;;;;;;17.43;65.64;100459.06;1748548;81;21118;-86
2022/06/06 05:29:34;;;;;;;8.03;5.95;;;;;;;17.46;65.35;100452.23;1770304;80;21003;-87
2022/06/06 05:32:31;;;;;;;7.08;6.37;;;;;;;17.51;65.36;100461.20;1769736;79;21015;-90
2022/06/06 05:35:35;;;;;;;6.58;5.90;;;;;;;17.56;65.39;100457.30;1767266;80;21551;-88
2022/06/06 05:38:29;;;;;;;7.00;6.30;;;;;;;17.62;65.41;100453.39;1734332;81;21068;-85
2022/06/06 05:41:41;;;;;;;7.13;6.30;;;;;;;17.67;65.07;100445.15;1756799;81;21148;-86
2022/06/06 05:44:46;;;;;;;6.75;6.08;;;;;;;17.71;65.05;100460.77;1743730;81;21047;-86
2022/06/06 05:47:41;;;;;;;6.90;6.17;;;;;;;17.71;64.53;100453.26;1767761;80;21039;-86
2022/06/06 05:50:52;;;;;;;7.08;6.40;;;;;;;17.71;64.53;100453.26;1736521;81;20976;-84
2022/06/06 05:53:40;;;;;;;8.28;6.20;;;;;;;17.76;64.61;100449.38;1732376;81;21004;-84
2022/06/06 05:57:07;;;;;;;7.08;6.37;;;;;;;17.82;64.50;100456.11;1762687;81;21239;-92
2022/06/06 06:00:26;;;;;;;8.35;6.75;;;;;;;17.86;64.41;100450.13;1757190;80;21969;-91
2022/06/06 06:03:54;;;;;;;10.05;6.85;;;;;;;17.92;64.32;100458.50;1757327;80;21103;-85
2022/06/06 06:06:49;;;;;;;7.08;6.37;;;;;;;17.98;64.20;100455.44;1751953;80;21551;-87
2022/06/06 06:09:27;;;;;;;7.53;6.80;;;;;;;18.05;64.30;100449.26;1768091;79;21011;-88
2022/06/06 06:12:31;;;;;;;8.33;6.90;;;;;;;18.12;64.33;100453.66;1766539;80;21103;-86
2022/06/06 06:15:29;;;;;;;10.25;6.35;;;;;;;18.16;64.28;100449.86;1762897;80;21047;-89
2022/06/06 06:17:59;;;;;;;9.43;7.05;;;;;;;18.19;64.36;100446.52;1767596;80;21134;-88
2022/06/06 06:20:37;;;;;;;6.97;6.33;;;;;;;18.24;64.46;100447.54;1763731;81;21059;-89
2022/06/06 06:23:12;;;;;;;8.95;6.72;;;;;;;18.28;64.59;100450.34;1764348;80;21076;-86
2022/06/06 06:25:42;;;;;;;7.47;6.78;;;;;;;18.38;64.60;100454.07;1768013;80;21105;-86
2022/06/06 06:28:12;;;;;;;7.47;6.78;;;;;;;18.43;64.55;100457.75;1750859;79;21050;-83
2022/06/06 06:31:05;;;;;;;10.13;6.80;;;;;;;18.49;64.71;100458.16;1767143;80;21106;-84
2022/06/06 06:34:28;;;;;;;7.58;6.58;;;;;;;18.57;64.67;100464.27;1763364;80;21016;-86
2022/06/06 06:37:46;;;;;;;7.67;6.40;;;;;;;18.65;64.62;100458.41;1760973;80;21055;-87
2022/06/06 06:40:53;;;;;;;6.90;6.28;;;;;;;18.76;64.71;100465.66;1741994;81;21108;-87
2022/06/06 06:43:56;;;;;;;8.13;6.83;;;;;;;18.86;64.75;100472.88;1746378;81;20947;-88
2022/06/06 06:46:34;;;;;;;7.50;6.80;;;;;;;18.98;64.64;100470.30;1765302;81;20992;-84
2022/06/06 06:49:38;;;;;;;8.53;7.03;;;;;;;19.06;64.63;100470.61;1738707;79;20998;-88
2022/06/06 06:52:51;;;;;;;7.78;6.97;;;;;;;19.13;64.62;100466.08;1742649;81;21080;-90
2022/06/06 06:55:32;;;;;;;7.92;7.12;;;;;;;19.24;64.70;100472.45;1738420;79;21216;-85
2022/06/06 06:58:22;;;;;;;7.42;6.72;;;;;;;19.31;64.70;100474.52;1742392;81;22353;-87
2022/06/06 07:01:00;;;;;;;7.92;7.12;;;;;;;19.38;64.73;100480.27;1737258;79;21011;-87
2022/06/06 07:11:01;;;;;;;9.38;7.00;;;;;;;19.46;64.48;100472.58;1731984;80;21398;-87
2022/06/06 07:14:07;;;;;;;8.20;7.10;;;;;;;19.48;64.55;100475.11;1761998;81;21337;-86
2022/06/06 07:16:37;;;;;;;8.25;6.95;;;;;;;19.51;64.65;100472.22;1765700;80;20999;-86
2022/06/06 07:19:22;;;;;;;9.93;6.85;;;;;;;19.58;64.81;100474.33;1765534;81;20981;-86
2022/06/06 07:21:51;;;;;;;9.83;6.83;;;;;;;19.65;64.70;100477.86;1762375;81;21051;-86
2022/06/06 07:24:23;;;;;;;8.05;7.30;;;;;;;19.68;64.65;100486.52;1762774;81;21493;-86
2022/06/06 07:26:52;;;;;;;6.83;6.20;;;;;;;19.73;64.79;100488.81;1740691;81;21066;-88
2022/06/06 07:29:24;;;;;;;8.63;6.72;;;;;;;19.78;64.88;100482.19;1755015;81;21039;-85
2022/06/06 07:32:44;;;;;;;8.03;6.70;;;;;;;19.88;65.00;100485.03;1748988;81;21031;-82
2022/06/06 07:35:37;;;;;;;10.53;6.58;;;;;;;19.97;65.06;100484.81;1761097;81;21055;-82
2022/06/06 07:38:25;;;;;;;8.43;7.15;;;;;;;20.09;65.09;100477.23;1744206;81;21151;-85
2022/06/06 07:41:17;;;;;;;7.55;6.80;;;;;;;20.21;65.10;100484.78;1769327;80;21476;-83
2022/06/06 07:43:53;;;;;;;8.18;7.37;;;;;;;20.28;65.42;100493.98;1769186;80;21095;-81
2022/06/06 07:46:45;;;;;;;8.45;7.75;;;;;;;20.34;65.97;100485.55;1744768;81;21055;-81
2022/06/06 07:49:42;;;;;;;8.15;7.35;;;;;;;20.41;66.56;100488.09;1755742;81;21627;-81
2022/06/06 07:52:21;;;;;;;;;;;;;;;20.47;66.86;100487.61;1772885;80;21298;-80
2022/06/06 07:55:24;;;;;;;8.55;7.75;;;;;;;20.53;67.51;100488.11;1745115;81;20155;-90
2022/06/06 07:58:22;;;;;;;8.85;8.15;;;;;;;20.57;67.28;100490.95;1747658;81;21000;-90
2022/06/06 08:01:07;;;;;;;8.30;7.50;;;;;;;20.62;67.63;100490.95;1739314;81;21041;-89
2022/06/06 08:03:53;;;;;;;9.05;8.10;;;;;;;20.70;67.93;100500.98;1739381;81;21097;-85
2022/06/06 08:06:40;;;;;;;9.50;8.60;;;;;;;20.72;67.68;100501.23;1739799;81;21071;-89
2022/06/06 08:09:28;;;;;;;9.38;8.53;;;;;;;20.70;67.93;100494.33;1745709;81;21051;-87
2022/06/06 08:12:28;;;;;;;10.15;9.25;;;;;;;20.68;68.03;100492.30;1749589;81;21104;-90
2022/06/06 08:15:15;;;;;;;;;;;;;;;20.65;68.18;100492.05;1741478;81;21006;-90
2022/06/06 08:18:08;;;;;;;10.63;9.70;;;;;;;20.62;68.78;100502.09;1746720;81;20503;-90
2022/06/06 08:20:53;;;;;;;10.70;9.65;;;;;;;20.52;68.55;100493.92;1742632;80;21622;-90
2022/06/06 08:23:22;;;;;;;11.48;9.58;;;;;;;20.40;68.86;100490.40;1738644;81;21011;-90
2022/06/06 08:25:51;;;;;;;10.77;9.83;;;;;;;20.23;69.75;100497.47;1762761;81;21272;-89
2022/06/06 08:28:20;;;;;;;10.82;9.73;;;;;;;20.23;69.75;100497.47;1760032;81;21031;-88
2022/06/06 08:30:48;;;;;;;10.53;9.63;;;;;;;20.14;70.30;100504.34;1728805;81;21055;-93
2022/06/06 08:33:15;;;;;;;10.90;9.80;;;;;;;20.12;70.88;100498.31;1739862;81;21153;-92
2022/06/06 08:35:56;;;;;;;9.98;9.13;;;;;;;20.06;70.81;100504.06;1739658;81;21066;-87
2022/06/06 08:38:50;;;;;;;10.20;9.20;;;;;;;20.00;71.25;100502.72;1739688;81;21548;-86
2022/06/06 08:41:52;;;;;;;10.60;9.50;;;;;;;19.98;72.02;100509.98;1731292;80;21019;-86
2022/06/06 08:44:42;;;;;;;9.90;9.00;;;;;;;19.96;71.90;100524.36;1769164;80;21094;-89
2022/06/06 08:47:36;;;;;;;10.20;9.20;;;;;;;19.85;72.16;100521.16;1769111;80;21130;-88
2022/06/06 08:50:45;;;;;;;10.05;9.23;;;;;;;19.77;72.24;100522.21;1739520;79;20990;-87
2022/06/06 08:53:44;;;;;;;9.98;9.08;;;;;;;19.68;72.72;100526.88;1749282;79;21020;-89
2022/06/06 08:57:06;;;;;;;9.28;8.48;;;;;;;19.60;73.18;100532.23;1767496;81;21027;-86
2022/06/06 09:00:09;;;;;;;8.65;7.92;;;;;;;19.54;73.46;100533.17;1770422;80;21019;-86
2022/06/06 09:03:19;;;;;;;8.83;7.92;;;;;;;19.48;73.93;100529.15;1769722;80;21125;-90
2022/06/06 09:06:34;;;;;;;9.10;8.30;;;;;;;19.44;74.19;100530.80;1770535;80;21071;-80
2022/06/06 09:09:09;;;;;;;7.70;7.00;;;;;;;19.38;74.66;100534.75;1748714;81;20996;-83
2022/06/06 09:12:03;;;;;;;7.53;6.92;;;;;;;19.30;74.77;100534.45;1769182;81;21031;-81
2022/06/06 09:14:41;;;;;;;7.20;6.60;;;;;;;19.20;75.21;100535.56;1748400;79;21001;-81
2022/06/06 09:17:58;;;;;;;7.60;6.92;;;;;;;19.05;75.27;100532.20;1756989;79;21105;-81
2022/06/06 09:20:52;;;;;;;7.40;6.80;;;;;;;18.99;75.65;100525.15;1761490;80;20996;-81
2022/06/06 09:23:50;;;;;;;7.87;7.17;;;;;;;18.94;76.29;100530.28;1787693;80;21569;-81
2022/06/06 09:26:32;;;;;;;7.85;7.03;;;;;;;18.90;76.89;100535.91;1764606;80;21605;-86
2022/06/06 09:29:13;;;;;;;8.43;7.62;;;;;;;18.87;76.84;100537.00;1719076;80;21075;-80
2022/06/06 09:32:18;;;;;;;8.08;7.42;;;;;;;18.81;77.35;100532.09;1764977;80;21091;-81
2022/06/06 09:35:02;;;;;;;7.75;7.12;;;;;;;18.77;77.61;100547.88;1785342;80;21592;-80
2022/06/06 09:38:17;;;;;;;8.65;7.87;;;;;;;18.73;77.90;100545.89;1769271;80;21075;-81
2022/06/06 09:41:20;;;;;;;8.03;7.22;;;;;;;18.73;77.87;100546.34;1767054;80;21024;-82
2022/06/06 09:43:58;;;;;;;6.83;6.22;;;;;;;18.64;78.25;100546.98;1786464;80;21544;-80
2022/06/06 09:46:37;;;;;;;7.33;6.72;;;;;;;18.56;78.21;100549.31;1752284;80;21130;-77
2022/06/06 09:49:25;;;;;;;7.53;6.83;;;;;;;18.48;78.46;100551.15;1768348;80;21103;-79
2022/06/06 09:52:06;;;;;;;7.83;7.03;;;;;;;18.43;78.98;100560.77;1775528;80;21020;-82
2022/06/06 10:01:44;;;;;;;;;;;;;;;18.10;79.79;100565.19;1781006;80;21325;-81
2022/06/06 10:04:37;;;;;;;5.62;4.95;;;;;;;17.97;80.46;100567.78;1775999;80;20207;-80
2022/06/06 10:08:00;;;;;;;7.33;5.97;;;;;;;17.81;79.79;100580.33;1726136;81;21046;-79
2022/06/06 10:10:49;;;;;;;4.90;4.50;;;;;;;17.68;80.68;100576.72;1758312;80;21069;-80
2022/06/06 10:13:55;;;;;;;5.97;4.83;;;;;;;17.58;80.62;100570.69;1763171;81;21086;-80
2022/06/06 10:16:41;;;;;;;5.00;4.60;;;;;;;17.50;81.63;100576.95;1750384;81;21141;-80
2022/06/06 10:19:32;;;;;;;5.17;4.67;;;;;;;17.46;81.52;100574.13;1740988;81;21052;-82
2022/06/06 10:22:27;;;;;;;5.35;4.85;;;;;;;17.33;81.73;100576.69;1748523;80;21027;-85
2022/06/06 10:25:35;;;;;;;5.12;4.55;;;;;;;17.31;82.52;100571.95;1732067;82;21008;-84
2022/06/06 10:28:23;;;;;;;7.03;4.90;;;;;;;17.30;82.63;100577.36;1771045;80;21035;-84
2022/06/06 10:31:10;;;;;;;5.33;4.92;;;;;;;17.28;83.10;100592.49;1773947;80;22020;-84
2022/06/06 10:33:58;;;;;;;5.03;4.50;;;;;;;17.25;83.08;100596.66;1744743;80;21063;-87
2022/06/06 10:36:42;;;;;;;4.15;3.77;;;;;;;17.24;83.34;100594.97;1741579;81;21481;-85
2022/06/06 10:39:37;;;;;;;4.92;4.42;;;;;;;17.26;83.30;100594.38;1723100;82;21523;-84
2022/06/06 10:42:22;;;;;;;5.70;4.03;;;;;;;17.22;83.45;100606.13;1706079;82;21461;-84
2022/06/06 10:45:22;;;;;;;4.53;4.10;;;;;;;17.23;83.88;100608.66;1735319;82;21214;-85
2022/06/06 10:48:10;;;;;;;5.42;4.78;;;;;;;17.26;84.12;100605.81;1751888;80;22024;-88
2022/06/06 10:53:58;;;;;;;5.78;4.35;;;;;;;17.33;84.21;100602.34;1772841;80;21063;-85
2022/06/06 10:56:53;;;;;;;5.25;4.22;;;;;;;17.35;84.52;100599.13;1720862;82;21027;-84
2022/06/06 10:59:43;;;;;;;4.58;4.17;;;;;;;17.40;84.98;100593.04;1768602;80;21157;-86
2022/06/06 11:06:18;;;;;;;5.25;4.12;;;;;;;17.47;85.29;100601.00;1717633;80;21485;-90
2022/06/06 11:09:03;;;;;;;5.67;5.17;;;;;;;17.52;85.39;100608.19;1755910;80;21020;-87
2022/06/06 11:11:55;;;;;;;5.35;4.78;;;;;;;17.55;85.64;100603.17;1749575;80;21043;-85
2022/06/06 11:14:33;;;;;;;5.10;4.65;;;;;;;17.59;85.48;100598.89;1752385;80;21139;-85
2022/06/06 11:17:36;;;;;;;4.97;4.47;;;;;;;17.62;85.77;100604.47;1730374;81;37769;-87
2022/06/06 11:20:12;;;;;;;;;;;;;;;17.68;85.96;100600.58;1778594;79;21600;-84
2022/06/06 11:23:06;;;;;;;4.83;4.33;;;;;;;17.73;86.29;100607.29;1774506;79;20146;-84
2022/06/06 11:26:06;;;;;;;5.25;4.75;;;;;;;17.76;85.90;100610.23;1776914;80;21264;-84
2022/06/06 11:29:05;;;;;;;;;;;;;;;17.77;85.92;100611.47;1765936;80;21903;-83
2022/06/06 11:32:29;;;;;;;5.50;5.00;;;;;;;17.78;86.05;100609.66;1738594;80;20146;-84
2022/06/06 11:35:11;;;;;;;5.75;5.17;;;;;;;17.83;86.21;100604.47;1760933;81;21040;-85
2022/06/06 11:38:14;;;;;;;5.35;4.85;;;;;;;17.93;86.50;100603.42;1760711;80;21095;-83
2022/06/06 11:41:19;;;;;;;5.72;5.22;;;;;;;18.01;86.37;100602.45;1759904;80;21035;-83
2022/06/06 11:44:00;;;;;;;5.08;4.58;;;;;;;18.15;87.07;100603.33;1789749;79;21129;-83
2022/06/06 11:47:05;;;;;;;5.55;5.05;;;;;;;18.25;86.85;100597.80;1740386;81;21044;-83
2022/06/06 11:49:56;;;;;;;5.33;4.83;;;;;;;18.28;86.54;100599.77;1761070;81;21055;-83
2022/06/06 11:52:32;;;;;;;4.80;4.40;;;;;;;18.37;86.98;100599.63;1739602;80;21123;-84
2022/06/06 11:55:30;;;;;;;4.97;4.50;;;;;;;18.47;87.09;100594.58;1761066;80;20976;-83
2022/06/06 11:58:31;;;;;;;4.35;3.77;;;;;;;18.53;86.72;100598.62;1760786;80;21097;-83
2022/06/06 12:01:27;;;;;;;5.75;3.92;;;;;;;18.52;86.27;100595.12;1761160;81;21012;-84
2022/06/06 12:04:22;;;;;;;4.33;3.98;;;;;;;18.54;86.13;100594.55;1761067;81;21111;-84
2022/06/06 12:07:29;;;;;;;5.08;3.87;;;;;;;18.54;86.05;100594.55;1742338;81;21053;-84
2022/06/06 12:10:11;;;;;;;5.95;4.87;;;;;;;18.58;86.24;100592.53;1759900;81;21171;-88
2022/06/06 12:13:09;;;;;;;5.80;5.25;;;;;;;18.60;86.61;100589.31;1758138;80;21060;-82
2022/06/06 12:15:54;;;;;;;5.37;4.97;;;;;;;18.67;86.98;100582.13;1745669;80;21534;-86
2022/06/06 12:18:46;;;;;;;5.62;5.12;;;;;;;18.70;86.62;100578.42;1763066;81;21499;-86
2022/06/06 12:21:28;;;;;;;5.30;4.80;;;;;;;18.81;86.81;100578.56;1792949;79;21042;-95
2022/06/06 12:24:13;;;;;;;4.80;4.30;;;;;;;18.89;86.82;100576.23;1757848;81;21602;-82
2022/06/06 12:26:55;;;;;;;5.35;4.87;;;;;;;18.96;86.28;100575.83;1754604;80;21192;-88
2022/06/06 12:30:15;;;;;;;6.15;4.90;;;;;;;18.98;86.05;100578.72;1764366;80;21056;-81
2022/06/06 12:33:17;;;;;;;6.28;5.67;;;;;;;19.04;86.19;100577.45;1732393;81;21534;-83
2022/06/06 12:35:59;;;;;;;6.12;5.60;;;;;;;19.14;86.15;100579.84;1745181;81;21028;-83
2022/06/06 12:38:34;;;;;;;6.30;5.20;;;;;;;19.21;85.69;100579.80;1764075;80;21035;-81
2022/06/06 12:41:12;;;;;;;5.60;5.10;;;;;;;19.25;85.43;100574.62;1785379;80;21103;-83
2022/06/06 12:44:01;;;;;;;5.10;4.60;;;;;;;19.33;85.43;100575.42;1768801;80;21545;-82
2022/06/06 12:46:56;;;;;;;5.12;4.62;;;;;;;19.48;85.76;100581.44;1761766;80;21061;-82
2022/06/06 12:49:55;;;;;;;6.22;5.62;;;;;;;19.60;85.56;100588.55;1766154;79;21520;-82
2022/06/06 12:52:55;;;;;;;5.75;5.25;;;;;;;19.69;85.37;100581.75;1772014;80;21672;-82
2022/06/06 12:55:44;;;;;;;5.92;5.37;;;;;;;19.77;85.24;100583.38;1759222;80;21545;-83
2022/06/06 12:58:37;;;;;;;6.45;5.85;;;;;;;19.80;85.12;100573.84;1693356;80;21242;-81
2022/06/06 13:04:38;;;;;;;9.25;5.87;;;;;;;19.96;84.56;100566.93;1749307;80;21099;-84
2022/06/06 13:07:39;;;;;;;6.37;5.85;;;;;;;20.23;85.83;100562.67;1764058;80;21166;-88
2022/06/06 13:10:18;;;;;;;;;;;;;;;20.73;86.41;100551.39;1754967;80;21136;-80
2022/06/06 13:13:41;;;;;;;6.72;5.33;;;;;;;21.05;85.14;100542.69;1769847;80;20174;-82
2022/06/06 13:16:25;;;;;;;6.40;5.10;;;;;;;21.32;84.33;100547.66;1763719;80;21078;-82
2022/06/06 13:19:47;;;;;;;5.92;5.33;;;;;;;21.66;82.96;100547.14;1745662;81;21006;-85
2022/06/06 13:22:56;;;;;;;5.85;5.35;;;;;;;21.79;81.96;100537.17;1689906;83;21552;-78
2022/06/06 13:25:48;;;;;;;6.12;5.62;;;;;;;22.30;81.01;100534.82;1733766;81;21946;-85
2022/06/06 13:28:21;;;;;;;6.22;5.62;;;;;;;22.30;81.01;100534.82;1765483;78;21588;-85
2022/06/06 13:30:57;;;;;;;6.28;5.78;;;;;;;22.64;80.34;100548.36;1762955;80;21063;-82